ADDS METAR Data INFO
IDs: Format: Raw Decoded Include TAF

Data at: 2052 UTC 24 Jun 2017

KFST 241953Z AUTO 11008G21KT 090V160 10SM CLR 29/18 A3017 RMK AO2 SLP165 T02940178
KFST 241853Z AUTO 10015KT 10SM CLR 28/18 A3019 RMK AO2 SLP176 T02780183
KFST 241753Z AUTO 09019G24KT 10SM SCT036 BKN045 28/18 A3020 RMK AO2 PK WND 07026/1702 SLP177 T02780178 10278 20206 51009
KFST 241653Z AUTO 08015G25KT 10SM CLR 28/15 A3020 RMK AO2 PK WND 08027/1631 SLP175 T02780150
KFST 241553Z AUTO 08018KT 10SM CLR 27/15 A3019 RMK AO2 PK WND 08026/1538 SLP173 T02670150
KFST 241453Z AUTO 07014G22KT 10SM CLR 25/15 A3017 RMK AO2 SLP166 T02500150 51032
KFST 241353Z AUTO 05017KT 10SM CLR 24/14 A3013 RMK AO2 SLP153 T02390139
KFST 241253Z AUTO 07013KT 10SM CLR 21/14 A3011 RMK AO2 SLP144 T02110144
KFST 241153Z AUTO 06008KT 10SM CLR 21/15 A3006 RMK AO2 PRESRR SLP125 T02110150 10244 20211 53020
KFST 241053Z AUTO 24006KT 10SM CLR 21/16 A2999 RMK AO2 SLP100 T02110156
KFST 240953Z AUTO 17008KT 10SM CLR 23/15 A2999 RMK AO2 SLP098 T02280150
KFST 240853Z AUTO 16008KT 10SM CLR 23/15 A3000 RMK AO2 SLP101 T02280150 55013
KFST 240753Z AUTO 14009KT 10SM CLR 23/15 A3000 RMK AO2 SLP100 T02330150
KFST 240653Z AUTO 14013KT 10SM CLR 24/16 A3002 RMK AO2 SLP106 T02390156
KFST 240553Z AUTO 13015KT 10SM CLR 24/16 A3004 RMK AO2 SLP116 60000 T02440156 10394 20244 404170244 51006
KFST 240453Z AUTO 15015G20KT 10SM CLR 26/16 A3004 RMK AO2 SLP117 T02610156
KFST 240353Z AUTO 16015KT 10SM CLR 25/16 A3003 RMK AO2 LTG DSNT S AND SW TSE07 SLP116 T02500161
KFST 240313Z AUTO 13011G21KT 10SM CLR 26/17 A3003 RMK AO2 LTG DSNT E-SW TSE07 T02560172
KFST 240302Z AUTO 14011KT 10SM TS CLR 27/17 A3003 RMK AO2 LTG DSNT E-SW T02670167
KFST 240253Z AUTO 21011G14KT 10SM TS CLR 27/17 A3003 RMK AO2 PK WND 12036/0222 LTG DSNT ALQDS RAB0155E35 TSE14B52 PRESRR SLP113 P0000 60000 T02670172 51076
KFST 240220Z AUTO 11026G33KT 10SM VCTS -RA FEW055 FEW090 BKN110 31/15 A2988 RMK AO2 PK WND 12033/0220 LTG DSNT ALQDS RAB0155 TSE14 PRESFR P0000 T03060150
KFST 240153Z AUTO 04022G29KT 10SM TS SCT110 31/14 A2992 RMK AO2 PK WND 03040/0118 WSHFT 0040 LTG DSNT ALQDS TSB53 SLP075 T03060139
KFST 240137Z AUTO 04015G25KT 10SM VCTS SCT110 30/14 A2991 RMK AO2 PK WND 03040/0118 WSHFT 0040 LTG DSNT ALQDS T03000139
KFST 240100Z AUTO 01024G36KT 5SM HZ SQ SCT120 31/13 A2989 RMK AO2 PK WND 01035/0057 WSHFT 0040 LTG DSNT SW-N T03110133
KFST 240053Z AUTO 01030G36KT 7SM SQ FEW120 34/12 A2989 RMK AO2 PK WND 02036/0052 WSHFT 0036 LTG DSNT W-N PRESRR SLP064 T03390122
KFST 232353Z AUTO 12018G27KT 10SM CLR 39/11 A2978 RMK AO2 PK WND 12027/2353 SLP023 T03940106 10417 20383 56010
KFST 232253Z AUTO 11013G22KT 10SM CLR 41/11 A2978 RMK AO2 SLP022 T04060106
KFST 232153Z AUTO 15008G17KT 10SM CLR 41/11 A2979 RMK AO2 SLP024 T04110106
KFST 232053Z AUTO 12009G17KT 080V160 10SM CLR 41/10 A2981 RMK AO2 SLP033 T04060100 58009
KFST 231953Z AUTO 14012G18KT 110V170 10SM CLR 41/11 A2983 RMK AO2 SLP039 T04060106
KFST 231853Z AUTO 14015G24KT 10SM CLR 40/11 A2984 RMK AO2 SLP043 T04000111
KFST 231753Z AUTO 12012KT 10SM CLR 39/12 A2984 RMK AO2 SLP043 60000 T03890117 10389 20267 58005
KFST 231653Z AUTO 17009KT 10SM CLR 35/14 A2984 RMK AO2 WSHFT 1608 SLP043 T03500139
KFST 231628Z AUTO 16017G23KT 10SM FEW050 SCT110 32/13 A2983 RMK AO2 WSHFT 1608 T03170133
KFST 231553Z AUTO 07014KT 10SM FEW043 BKN095 BKN110 31/14 A2990 RMK AO2 PK WND 34029/1508 WSHFT 1504 LTG DSNT NE RAB24E43 SLP066 P0000 T03110144
KFST 231524Z AUTO 02015G23KT 10SM -RA SCT110 31/14 A2991 RMK AO2 PK WND 34029/1508 WSHFT 1504 RAB24 P0000 T03110139
KFST 231453Z AUTO 11009KT 10SM FEW110 32/14 A2986 RMK AO2 LTG DSNT N SLP050 T03220139 52024
KFST 231353Z AUTO 17012KT 10SM CLR 30/14 A2983 RMK AO2 SLP042 T03000139
KFST 231253Z AUTO 15010KT 10SM CLR 27/14 A2981 RMK AO2 SLP032 T02720139
KFST 231153Z AUTO 17012KT 10SM CLR 27/13 A2978 RMK AO2 SLP024 T02670133 10300 20267 53003
KFST 231053Z AUTO 15010KT 10SM CLR 27/13 A2977 RMK AO2 SLP018 T02720133
KFST 230953Z AUTO 16012KT 10SM FEW050 FEW070 SCT090 28/13 A2976 RMK AO2 SLP014 T02830133
KFST 230853Z AUTO 14009KT 10SM CLR 28/13 A2977 RMK AO2 SLP019 T02830133 55006


Page loaded:  20:52 UTC  |   01:52 PM Pacific  |   02:52 PM Mountain  |   03:52 PM Central  |   04:52 PM Eastern

 

ADVISORIES

FORECASTS

FORECASTS

OBSERVATIONS

USER TOOLS

ABOUT US